Aérodrome :
LOGIN :

S'inscrire | Disclaimer

   EN    FR    IT 

 










Légende :    VFR   VFR Marginal   IFR   IFR Intensif   IFR Très Intensif
Visi : 
Plafond : 
>= 8 km
>= 3000ft
5 à 8 km
1000 à 3000 ft
1500m à 5 km
500 à 1000 ft
800 à 1500m
200 à 500 ft
< 800m
< 200 ft
Symboles :   Orages  Brouillard  Fortes neiges  Fortes précipitations  Vent > 20 kt
SIGMETs :   Divers  Orages  Givrage  Turbulence  Onde Orograph.  Cendres Volcan.







- Altitude de l'aérodrome : 13 ft
- Code IATA : LYX
- Voir les cartes d'approche


EGMD - Lydd

DERNIER METAR :
  • 180620Z AUTO 25014KT 9999 FEW020/// 17/15 Q1011

METARs EXPIRÉS :
  • 180550Z AUTO 24016KT 9999 FEW011/// BKN015/// 18/16 Q1011
  • 180520Z AUTO 23017KT 9999 BKN008/// BKN013/// 18/17 Q1011
  • 180450Z AUTO 22017KT 9999 FEW003/// BKN007/// BKN024/// 18/17 Q1011 RERA
  • 180420Z AUTO 22016KT 9999 BKN009/// OVC035/// 18/17 Q1011
  • 180350Z AUTO 22015KT 9999 BKN010/// OVC014/// 18/16 Q1011

TAF TAF EGMD
Valide du 18 à 06h jusqu'au 18 à 15h UTC


180501Z 1806/1815 23016KT 9999 SCT022
TEMPO 1806/1815 26020G30KT 7000 SHRA
PROB30
TEMPO 1806/1809 BKN007
PROB30
TEMPO 1812/1815 4500 +SHRA
ATIS : +44 1797 322 422
Pas de NOTAMs connus pour ce terrain.



MET'MAP, la Météo Aéronautique d'un coup d'oeil ! - Copyright ORBIFLY Décembre 2007 - Disclaimer

ORBIFLY MET'MAP TEAM :

Programmation & Développement : Alexandra Zaïnal
Conception & Développement : Baudouin d'Aumeries
Co-Programmation & Développement : Marc-Olivier Méhu
Soutien technique & logistique : Manuel Goepfert

Contact : metmap@orbifly.com




SOURCES & CREDITS :

   NOAA